Thalassa — FNFP — position and weather

sailwx.info

Track history (hours):
 
Tides and Currents Weather Stations Pressure Air Temp Water Temp Dewpoint Dewpoint Depression Visibility Wind Speed Wind Dir Waves Ship Positions

Oceanographic research ship Thalassa (France & Spain)

Detailed information on ship capabilities available from University of Delaware's Ocean Information Center.

Last reported at 2018-Jun-17 18:05 UTC. Time now 2018-Jun-18 00:23 UTC.
Position N 40°20' W 010°02'.

Length 74 m; beam 15 m.

Type: Other ship. MMSI: 227297000.

Date/timePositionNaut miles runAvg speedWind from/ knotsBaromVisibWave heightAir tempDewpointWater temp
2018-Jun-17 18:05N 40°20' W 010°02'0 0.1
2018-Jun-17 17:59N 40°20' W 010°02'0 0.1
2018-Jun-17 17:28N 40°20' W 010°02'0 0.0
2018-Jun-17 16:52N 40°20' W 010°02'0 0.0
2018-Jun-17 16:30N 40°20' W 010°02'4 5.6
2018-Jun-17 15:48N 40°20' W 009°57'0 0.4
2018-Jun-17 15:13N 40°20' W 009°57'0 0.1
2018-Jun-17 14:57N 40°20' W 009°57'0 0.0
2018-Jun-17 14:28N 40°20' W 009°57'8 0.5
2018-Jun-16 22:57N 40°20' W 009°46'63 7.3
2018-Jun-16 14:17N 41°07' W 008°51'411.9
2018-Jun-16 13:59N 41°11' W 008°48'1 2.1
2018-Jun-16 13:29N 41°12' W 008°48'368 7.9
2018-Jun-14 14:59N 46°55' W 005°47'611.2
2018-Jun-14 14:27N 46°60' W 005°41'511.1
2018-Jun-14 13:59N 47°03' W 005°35'510.2
2018-Jun-14 13:29N 47°07' W 005°30'4 7.4
2018-Jun-14 13:00N 47°07' W 005°25'4 6.7
2018-Jun-14 12:28N 47°07' W 005°20'5 1.0
2018-Jun-14 07:05N 47°11' W 005°25'1911.0
2018-Jun-14 05:20N 47°30' W 005°20'813.1
2018-Jun-14 04:42N 47°38' W 005°18'413.1
2018-Jun-14 04:25N 47°41' W 005°17'512.5
2018-Jun-14 03:59N 47°47' W 005°16'611.6
2018-Jun-14 03:30N 47°52' W 005°14'611.1
2018-Jun-14 02:59N 47°58' W 005°13'510.4
2018-Jun-14 02:30N 48°03' W 005°12'5 8.9
2018-Jun-14 01:59N 48°06' W 005°07'511.0
2018-Jun-14 01:30N 48°09' W 005°01'612.2
2018-Jun-14 01:00N 48°13' W 004°54'612.3
2018-Jun-14 00:30N 48°17' W 004°46'510.6
2018-Jun-14 00:01N 48°19' W 004°39'1 2.1
2018-Jun-13 23:30N 48°19' W 004°38'612.6
2018-Jun-13 23:00N 48°17' W 004°46'713.1
2018-Jun-13 22:30N 48°13' W 004°54'713.4
2018-Jun-13 22:00N 48°09' W 005°02'612.9
2018-Jun-13 21:30N 48°05' W 005°10'611.4
2018-Jun-13 21:00N 47°59' W 005°12'611.7
2018-Jun-13 20:30N 47°54' W 005°14'611.8
2018-Jun-13 20:00N 47°48' W 005°16'5 9.1
2018-Jun-13 19:28N 47°43' W 005°17'1012.2
2018-Jun-13 18:39N 47°33' W 005°20'312.2
2018-Jun-13 18:23N 47°30' W 005°21'512.3
2018-Jun-13 17:57N 47°25' W 005°22'10 1.5
2018-Jun-13 11:44N 47°34' W 005°21'711.2
2018-Jun-13 11:07N 47°41' W 005°20'511.5
2018-Jun-13 10:40N 47°46' W 005°18'211.3
2018-Jun-13 10:27N 47°49' W 005°18'512.0
2018-Jun-13 10:00N 47°54' W 005°16'612.4
2018-Jun-13 09:30N 47°60' W 005°14'612.3
2018-Jun-13 09:00N 48°05' W 005°08'612.2
2018-Jun-13 08:30N 48°08' W 005°01'612.1
2018-Jun-13 08:00N 48°12' W 004°54'611.6
2018-Jun-13 07:30N 48°16' W 004°47'4 8.8
2018-Jun-13 07:00N 48°17' W 004°41'612.8
2018-Jun-13 06:31N 48°21' W 004°33'3 6.3
2018-Jun-13 05:58N 48°23' W 004°29'0 0.0
2018-Jun-13 05:28N 48°23' W 004°29'0 0.0
2018-Jun-13 04:58N 48°23' W 004°29'0 0.0
2018-Jun-13 04:28N 48°23' W 004°29'0 0.0
2018-Jun-13 03:58N 48°23' W 004°29'0 0.0
2018-Jun-13 03:28N 48°23' W 004°29'0 0.0
2018-Jun-13 02:58N 48°23' W 004°29'0 0.0
2018-Jun-13 02:28N 48°23' W 004°29'0 0.0
2018-Jun-13 01:58N 48°23' W 004°29'0 0.0
2018-Jun-13 01:28N 48°23' W 004°29'0 0.0
2018-Jun-13 00:58N 48°23' W 004°29'0 0.0
2018-Jun-13 00:28N 48°23' W 004°29'0 0.0
2018-Jun-12 23:58N 48°23' W 004°29'0 0.0
2018-Jun-12 23:28N 48°23' W 004°29'0 0.0
2018-Jun-12 22:58N 48°23' W 004°29'0 0.0
2018-Jun-12 22:28N 48°23' W 004°29'0 0.0
2018-Jun-12 21:58N 48°23' W 004°29'0 0.0
2018-Jun-12 21:28N 48°23' W 004°29'0 0.0
2018-Jun-12 20:58N 48°23' W 004°29'0 0.0
2018-Jun-12 20:28N 48°23' W 004°29'0 0.0
2018-Jun-12 19:58N 48°23' W 004°29'0 0.0
2018-Jun-12 19:28N 48°23' W 004°29'0 0.0
2018-Jun-12 18:58N 48°23' W 004°29'0 0.0
2018-Jun-12 18:28N 48°23' W 004°29'0 0.0
2018-Jun-12 17:58N 48°23' W 004°29'0 0.0
2018-Jun-12 17:28N 48°23' W 004°29'0 0.0
2018-Jun-12 16:58N 48°23' W 004°29'0 0.0
2018-Jun-12 16:28N 48°23' W 004°29'0 0.0
2018-Jun-12 15:58N 48°23' W 004°29'0 0.0
2018-Jun-12 15:28N 48°23' W 004°29'0 0.0
2018-Jun-12 14:58N 48°23' W 004°29'0 0.0
2018-Jun-12 14:28N 48°23' W 004°29'0 0.0
2018-Jun-12 13:58N 48°23' W 004°29'0 0.0
2018-Jun-12 13:28N 48°23' W 004°29'0 0.0
2018-Jun-12 12:58N 48°23' W 004°29'0 0.0
2018-Jun-12 12:28N 48°23' W 004°29'0 0.0
2018-Jun-12 11:58N 48°23' W 004°29'0 0.0
2018-Jun-12 11:28N 48°23' W 004°29'0 0.0
2018-Jun-12 10:58N 48°23' W 004°29'0 0.0
2018-Jun-12 10:28N 48°23' W 004°29'0 0.0
2018-Jun-12 09:58N 48°23' W 004°29'0 0.0
2018-Jun-12 09:28N 48°23' W 004°29'0 0.0
2018-Jun-12 08:58N 48°23' W 004°29'0 0.0
2018-Jun-12 08:28N 48°23' W 004°29'0 0.0
2018-Jun-12 07:58N 48°23' W 004°29'0 0.0
2018-Jun-12 07:28N 48°23' W 004°29'0 0.0
2018-Jun-12 06:58N 48°23' W 004°29'0 0.0
2018-Jun-12 06:28N 48°23' W 004°29'0 0.0
2018-Jun-12 05:58N 48°23' W 004°29'0 0.0
2018-Jun-12 05:28N 48°23' W 004°29'0 0.0
2018-Jun-12 04:58N 48°23' W 004°29'0 0.0
2018-Jun-12 04:28N 48°23' W 004°29'0 0.0
2018-Jun-12 03:58N 48°23' W 004°29'0 0.0
2018-Jun-12 03:28N 48°23' W 004°29'0 0.0
2018-Jun-12 02:58N 48°23' W 004°29'0 0.0
2018-Jun-12 02:28N 48°23' W 004°29'0 0.0
2018-Jun-12 01:58N 48°23' W 004°29'0 0.0
2018-Jun-12 01:28N 48°23' W 004°29'0 0.0
2018-Jun-12 00:58N 48°23' W 004°29'0 0.0
2018-Jun-12 00:28N 48°23' W 004°29'0 0.0
2018-Jun-11 23:58N 48°23' W 004°29'0 0.0
2018-Jun-11 23:28N 48°23' W 004°29'0 0.0
2018-Jun-11 22:58N 48°23' W 004°29'0 0.0
2018-Jun-11 22:28N 48°23' W 004°29'0 0.0
2018-Jun-11 21:58N 48°23' W 004°29'0 0.0
2018-Jun-11 21:28N 48°23' W 004°29'0 0.0
2018-Jun-11 20:58N 48°23' W 004°29'0 0.0
2018-Jun-11 20:28N 48°23' W 004°29'0 0.0
2018-Jun-11 19:58N 48°23' W 004°29'0 0.0
2018-Jun-11 19:28N 48°23' W 004°29'0 0.0
2018-Jun-11 18:58N 48°23' W 004°29'0 0.0
2018-Jun-11 18:28N 48°23' W 004°29'0 0.0
2018-Jun-11 17:58N 48°23' W 004°29'0 0.0
2018-Jun-11 17:28N 48°23' W 004°29'0 0.0
2018-Jun-11 16:58N 48°23' W 004°29'0 0.0
2018-Jun-11 16:28N 48°23' W 004°29'0 0.0
2018-Jun-11 15:58N 48°23' W 004°29'0 0.0
2018-Jun-11 15:28N 48°23' W 004°29'0 0.0
2018-Jun-11 14:58N 48°23' W 004°29'0 0.0
2018-Jun-11 14:28N 48°23' W 004°29'0 0.0
2018-Jun-11 13:58N 48°23' W 004°29'0 0.0
2018-Jun-11 13:28N 48°23' W 004°29'0 0.0
2018-Jun-11 13:01N 48°23' W 004°29'0 0.0
2018-Jun-11 12:28N 48°23' W 004°29'0 0.0
2018-Jun-11 12:01N 48°23' W 004°29'0 0.0
2018-Jun-11 11:31N 48°23' W 004°29'0 0.0
2018-Jun-11 11:01N 48°23' W 004°29'0 0.0
2018-Jun-11 10:31N 48°23' W 004°29'0 0.0
2018-Jun-11 10:01N 48°23' W 004°29'0 0.0
2018-Jun-11 09:31N 48°23' W 004°29'0 0.0
2018-Jun-11 09:01N 48°23' W 004°29'0 0.0
2018-Jun-11 08:31N 48°23' W 004°29'0 0.0
2018-Jun-11 08:00N 48°23' W 004°29'0 0.0
2018-Jun-11 07:31N 48°23' W 004°29'0 0.0
2018-Jun-11 07:01N 48°23' W 004°29'0 0.0
2018-Jun-11 06:30N 48°23' W 004°29'0 0.0
2018-Jun-11 06:00N 48°23' W 004°29'0 0.0
2018-Jun-11 05:30N 48°23' W 004°29'0 0.0
2018-Jun-11 05:00N 48°23' W 004°29'0 0.0
2018-Jun-11 04:30N 48°23' W 004°29'0 0.0
2018-Jun-11 04:00N 48°23' W 004°29'0 0.0
2018-Jun-11 03:30N 48°23' W 004°29'0 0.0
2018-Jun-11 03:00N 48°23' W 004°29'0 0.0
2018-Jun-11 02:30N 48°23' W 004°29'0 0.0
2018-Jun-11 02:00N 48°23' W 004°29'0 0.0
2018-Jun-11 01:30N 48°23' W 004°29'0 0.0
2018-Jun-11 01:00N 48°23' W 004°29'0 0.0
2018-Jun-11 00:30N 48°23' W 004°29'0 0.0
2018-Jun-11 00:00N 48°23' W 004°29'0 0.0
2018-Jun-10 23:30N 48°23' W 004°29'0 0.0
2018-Jun-10 23:00N 48°23' W 004°29'0 0.0
2018-Jun-10 22:30N 48°23' W 004°29'0 0.0
2018-Jun-10 22:00N 48°23' W 004°29'0 0.0
2018-Jun-10 21:30N 48°23' W 004°29'0 0.0
2018-Jun-10 21:00N 48°23' W 004°29'0 0.0
2018-Jun-10 20:30N 48°23' W 004°29'0 0.0
2018-Jun-10 20:00N 48°23' W 004°29'0 0.0
2018-Jun-10 19:30N 48°23' W 004°29'0 0.0
2018-Jun-10 19:00N 48°23' W 004°29'0 0.0
2018-Jun-10 18:30N 48°23' W 004°29'0 0.0
2018-Jun-10 18:00N 48°23' W 004°29'0 0.0
2018-Jun-10 17:30N 48°23' W 004°29'0 0.0
2018-Jun-10 17:00N 48°23' W 004°29'0 0.0
2018-Jun-10 16:30N 48°23' W 004°29'0 0.0
2018-Jun-10 16:00N 48°23' W 004°29'0 0.0
2018-Jun-10 15:30N 48°23' W 004°29'0 0.0
2018-Jun-10 15:00N 48°23' W 004°29'0 0.0
2018-Jun-10 14:00N 48°23' W 004°29'0 0.0
2018-Jun-10 13:30N 48°23' W 004°29'0 0.0
2018-Jun-10 13:00N 48°23' W 004°29'0 0.0
2018-Jun-10 12:30N 48°23' W 004°29'0 0.0
2018-Jun-10 12:00N 48°23' W 004°29'0 0.0
2018-Jun-10 11:30N 48°23' W 004°29'0 0.0
2018-Jun-10 11:00N 48°23' W 004°29'0 0.0
2018-Jun-10 10:30N 48°23' W 004°29'0 0.0
2018-Jun-10 10:00N 48°23' W 004°29'0 0.0
2018-Jun-10 09:30N 48°23' W 004°29'0 0.0
2018-Jun-10 09:00N 48°23' W 004°29'0 0.0
2018-Jun-10 08:30N 48°23' W 004°29'0 0.0
2018-Jun-10 08:00N 48°23' W 004°29'0 0.0
2018-Jun-10 07:30N 48°23' W 004°29'0 0.0
2018-Jun-10 07:00N 48°23' W 004°29'0 0.0
2018-Jun-10 06:30N 48°23' W 004°29'0 0.0
2018-Jun-10 06:00N 48°23' W 004°29'0 0.0
2018-Jun-10 05:30N 48°23' W 004°29'0 0.0
2018-Jun-10 05:00N 48°23' W 004°29'0 0.0
2018-Jun-10 04:30N 48°23' W 004°29'0 0.0
2018-Jun-10 04:00N 48°23' W 004°29'0 0.0
2018-Jun-10 03:30N 48°23' W 004°29'0 0.0
2018-Jun-10 03:00N 48°23' W 004°29'0 0.0
2018-Jun-10 02:30N 48°23' W 004°29'0 0.0
2018-Jun-10 02:00N 48°23' W 004°29'0 0.0
2018-Jun-10 01:30N 48°23' W 004°29'0 0.0
2018-Jun-10 01:00N 48°23' W 004°29'0 0.0
2018-Jun-10 00:30N 48°23' W 004°29'0 0.0
2018-Jun-10 00:00N 48°23' W 004°29'0 0.0
2018-Jun-09 23:30N 48°23' W 004°29'0 0.0
2018-Jun-09 23:00N 48°23' W 004°29'0 0.0
2018-Jun-09 22:30N 48°23' W 004°29'0 0.0
2018-Jun-09 22:00N 48°23' W 004°29'0 0.0
2018-Jun-09 21:30N 48°23' W 004°29'0 0.0
2018-Jun-09 21:00N 48°23' W 004°29'0 0.0
2018-Jun-09 20:30N 48°23' W 004°29'0 0.0
2018-Jun-09 20:00N 48°23' W 004°29'0 0.0
2018-Jun-09 19:30N 48°23' W 004°29'0 0.0
2018-Jun-09 19:00N 48°23' W 004°29'0 0.0
2018-Jun-09 18:30N 48°23' W 004°29'0 0.0
2018-Jun-09 18:00N 48°23' W 004°29'0 0.0
2018-Jun-09 17:30N 48°23' W 004°29'0 0.0
2018-Jun-09 17:00N 48°23' W 004°29'0 0.0
2018-Jun-09 16:30N 48°23' W 004°29'0 0.0
2018-Jun-09 16:00N 48°23' W 004°29'0 0.0
2018-Jun-09 15:00N 48°23' W 004°29'0 0.0
2018-Jun-09 14:30N 48°23' W 004°29'0 0.0
2018-Jun-09 14:00N 48°23' W 004°29'0 0.0
2018-Jun-09 13:30N 48°23' W 004°29'0 0.0
2018-Jun-09 13:00N 48°23' W 004°29'0 0.0
2018-Jun-09 12:30N 48°23' W 004°29'0 0.0
2018-Jun-09 12:00N 48°23' W 004°29'0 0.0
2018-Jun-09 11:30N 48°23' W 004°29'0 0.0
2018-Jun-09 11:00N 48°23' W 004°29'0 0.0
2018-Jun-09 10:30N 48°23' W 004°29'0 0.0
2018-Jun-09 10:00N 48°23' W 004°29'0 0.0
2018-Jun-09 09:30N 48°23' W 004°29'0 0.0
2018-Jun-09 09:00N 48°23' W 004°29'0 0.0
2018-Jun-09 08:30N 48°23' W 004°29'0 0.0
2018-Jun-09 08:00N 48°23' W 004°29'0 0.0
2018-Jun-09 07:30N 48°23' W 004°29'0 0.0
2018-Jun-09 07:00N 48°23' W 004°29'0 0.0
2018-Jun-09 06:30N 48°23' W 004°29'0 0.0
2018-Jun-09 06:00N 48°23' W 004°29'0 0.0
2018-Jun-09 05:30N 48°23' W 004°29'0 0.0
2018-Jun-09 05:00N 48°23' W 004°29'0 0.0
2018-Jun-09 04:30N 48°23' W 004°29'0 0.0
2018-Jun-09 04:00N 48°23' W 004°29'0 0.0
2018-Jun-09 03:30N 48°23' W 004°29'0 0.0
2018-Jun-09 03:00N 48°23' W 004°29'0 0.0
2018-Jun-09 02:30N 48°23' W 004°29'0 0.0
2018-Jun-09 02:00N 48°23' W 004°29'0 0.0
2018-Jun-09 01:30N 48°23' W 004°29'0 0.0
2018-Jun-09 01:00N 48°23' W 004°29'0 0.0
2018-Jun-09 00:30N 48°23' W 004°29'0 0.0
2018-Jun-09 00:00N 48°23' W 004°29'0 0.0
2018-Jun-08 23:30N 48°23' W 004°29'0 0.0
2018-Jun-08 23:00N 48°23' W 004°29'0 0.0
2018-Jun-08 22:30N 48°23' W 004°29'0 0.0
2018-Jun-08 22:00N 48°23' W 004°29'0 0.0
2018-Jun-08 21:30N 48°23' W 004°29'0 0.0
2018-Jun-08 21:00N 48°23' W 004°29'0 0.0
2018-Jun-08 20:30N 48°23' W 004°29'0 0.0
2018-Jun-08 20:00N 48°23' W 004°29'0 0.0
2018-Jun-08 19:30N 48°23' W 004°29'0 0.0
2018-Jun-08 19:00N 48°23' W 004°29'0 0.0
2018-Jun-08 18:30N 48°23' W 004°29'0 0.0
2018-Jun-08 18:00N 48°23' W 004°29'0 0.0
2018-Jun-08 17:30N 48°23' W 004°29'0 0.0
2018-Jun-08 17:00N 48°23' W 004°29'0 0.0
2018-Jun-08 16:30N 48°23' W 004°29'0 0.0
2018-Jun-08 16:00N 48°23' W 004°29'0 0.0
2018-Jun-08 15:30N 48°23' W 004°29'0 0.0
2018-Jun-08 15:00N 48°23' W 004°29'0 0.0
2018-Jun-08 14:30N 48°23' W 004°29'0 0.0
2018-Jun-08 14:00N 48°23' W 004°29'0 0.0
2018-Jun-08 13:30N 48°23' W 004°29'0 0.0
2018-Jun-08 13:00N 48°23' W 004°29'0 0.0
2018-Jun-08 12:30N 48°23' W 004°29'0 0.0
2018-Jun-08 12:01N 48°23' W 004°29'0 0.0
2018-Jun-08 11:31N 48°23' W 004°29'0 0.0
2018-Jun-08 11:01N 48°23' W 004°29'0 0.0
2018-Jun-08 10:31N 48°23' W 004°29'0 0.0
2018-Jun-08 10:01N 48°23' W 004°29'0 0.0
2018-Jun-08 09:31N 48°23' W 004°29'0 0.0
2018-Jun-08 09:01N 48°23' W 004°29'0 0.0
2018-Jun-08 08:31N 48°23' W 004°29'0 0.0
2018-Jun-08 08:01N 48°23' W 004°29'0 0.0
2018-Jun-08 07:31N 48°23' W 004°29'0 0.0
2018-Jun-08 07:00N 48°23' W 004°29'0 0.0
2018-Jun-08 06:31N 48°23' W 004°29'0 0.0
2018-Jun-08 06:01N 48°23' W 004°29'0 0.0
2018-Jun-08 05:31N 48°23' W 004°29'0 0.0
2018-Jun-08 05:00N 48°23' W 004°29'0 0.0
2018-Jun-08 04:31N 48°23' W 004°29'0 0.0
2018-Jun-08 04:01N 48°23' W 004°29'0 0.0
2018-Jun-08 03:31N 48°23' W 004°29'0 0.0
2018-Jun-08 03:01N 48°23' W 004°29'0 0.0
2018-Jun-08 02:30N 48°23' W 004°29'0 0.0
2018-Jun-08 02:01N 48°23' W 004°29'0 0.0
2018-Jun-08 01:31N 48°23' W 004°29'0 0.0
2018-Jun-08 01:00N 48°23' W 004°29'0 0.0
2018-Jun-08 00:30N 48°23' W 004°29'0 0.0
2018-Jun-08 00:01N 48°23' W 004°29'0 0.0
2018-Jun-07 23:31N 48°23' W 004°29'0 0.0
2018-Jun-07 23:00N 48°23' W 004°29'0 0.0
2018-Jun-07 22:31N 48°23' W 004°29'0 0.0
2018-Jun-07 22:01N 48°23' W 004°29'0 0.0
2018-Jun-07 21:30N 48°23' W 004°29'0 0.0
2018-Jun-07 21:01N 48°23' W 004°29'0 0.0
2018-Jun-07 20:31N 48°23' W 004°29'0 0.0
2018-Jun-07 20:01N 48°23' W 004°29'0 0.0
2018-Jun-07 19:30N 48°23' W 004°29'0 0.0
2018-Jun-07 19:01N 48°23' W 004°29'0 0.0
2018-Jun-07 18:31N 48°23' W 004°29'  
Track history (hours):
 
Tides and Currents Weather Stations Pressure Air Temp Water Temp Dewpoint Dewpoint Depression Visibility Wind Speed Wind Dir Waves Ship Positions

Oceanographic research ship Thalassa (France & Spain)

Detailed information on ship capabilities available from University of Delaware's Ocean Information Center.

Last reported at 2018-Jun-17 18:05 UTC. Time now 2018-Jun-18 00:23 UTC.
Position N 40°20' W 010°02'.

Length 74 m; beam 15 m.

Type: Other ship. MMSI: 227297000.

Date/timePositionNaut miles runAvg speedWind from/ knotsBaromVisibWave heightAir tempDewpointWater temp
2018-Jun-17 18:05N 40°20' W 010°02'0 0.1
2018-Jun-17 17:59N 40°20' W 010°02'0 0.1
2018-Jun-17 17:28N 40°20' W 010°02'0 0.0
2018-Jun-17 16:52N 40°20' W 010°02'0 0.0
2018-Jun-17 16:30N 40°20' W 010°02'4 5.6
2018-Jun-17 15:48N 40°20' W 009°57'0 0.4
2018-Jun-17 15:13N 40°20' W 009°57'0 0.1
2018-Jun-17 14:57N 40°20' W 009°57'0 0.0
2018-Jun-17 14:28N 40°20' W 009°57'8 0.5
2018-Jun-16 22:57N 40°20' W 009°46'63 7.3
2018-Jun-16 14:17N 41°07' W 008°51'411.9
2018-Jun-16 13:59N 41°11' W 008°48'1 2.1
2018-Jun-16 13:29N 41°12' W 008°48'368 7.9
2018-Jun-14 14:59N 46°55' W 005°47'611.2
2018-Jun-14 14:27N 46°60' W 005°41'511.1
2018-Jun-14 13:59N 47°03' W 005°35'510.2
2018-Jun-14 13:29N 47°07' W 005°30'4 7.4
2018-Jun-14 13:00N 47°07' W 005°25'4 6.7
2018-Jun-14 12:28N 47°07' W 005°20'5 1.0
2018-Jun-14 07:05N 47°11' W 005°25'1911.0
2018-Jun-14 05:20N 47°30' W 005°20'813.1
2018-Jun-14 04:42N 47°38' W 005°18'413.1
2018-Jun-14 04:25N 47°41' W 005°17'512.5
2018-Jun-14 03:59N 47°47' W 005°16'611.6
2018-Jun-14 03:30N 47°52' W 005°14'611.1
2018-Jun-14 02:59N 47°58' W 005°13'510.4
2018-Jun-14 02:30N 48°03' W 005°12'5 8.9
2018-Jun-14 01:59N 48°06' W 005°07'511.0
2018-Jun-14 01:30N 48°09' W 005°01'612.2
2018-Jun-14 01:00N 48°13' W 004°54'612.3
2018-Jun-14 00:30N 48°17' W 004°46'510.6
2018-Jun-14 00:01N 48°19' W 004°39'1 2.1
2018-Jun-13 23:30N 48°19' W 004°38'612.6
2018-Jun-13 23:00N 48°17' W 004°46'713.1
2018-Jun-13 22:30N 48°13' W 004°54'713.4
2018-Jun-13 22:00N 48°09' W 005°02'612.9
2018-Jun-13 21:30N 48°05' W 005°10'611.4
2018-Jun-13 21:00N 47°59' W 005°12'611.7
2018-Jun-13 20:30N 47°54' W 005°14'611.8
2018-Jun-13 20:00N 47°48' W 005°16'5 9.1
2018-Jun-13 19:28N 47°43' W 005°17'1012.2
2018-Jun-13 18:39N 47°33' W 005°20'312.2
2018-Jun-13 18:23N 47°30' W 005°21'512.3
2018-Jun-13 17:57N 47°25' W 005°22'10 1.5
2018-Jun-13 11:44N 47°34' W 005°21'711.2
2018-Jun-13 11:07N 47°41' W 005°20'511.5
2018-Jun-13 10:40N 47°46' W 005°18'211.3
2018-Jun-13 10:27N 47°49' W 005°18'512.0
2018-Jun-13 10:00N 47°54' W 005°16'612.4
2018-Jun-13 09:30N 47°60' W 005°14'612.3
2018-Jun-13 09:00N 48°05' W 005°08'612.2
2018-Jun-13 08:30N 48°08' W 005°01'612.1
2018-Jun-13 08:00N 48°12' W 004°54'611.6
2018-Jun-13 07:30N 48°16' W 004°47'4 8.8
2018-Jun-13 07:00N 48°17' W 004°41'612.8
2018-Jun-13 06:31N 48°21' W 004°33'3 6.3
2018-Jun-13 05:58N 48°23' W 004°29'0 0.0
2018-Jun-13 05:28N 48°23' W 004°29'0 0.0
2018-Jun-13 04:58N 48°23' W 004°29'0 0.0
2018-Jun-13 04:28N 48°23' W 004°29'0 0.0
2018-Jun-13 03:58N 48°23' W 004°29'0 0.0
2018-Jun-13 03:28N 48°23' W 004°29'0 0.0
2018-Jun-13 02:58N 48°23' W 004°29'0 0.0
2018-Jun-13 02:28N 48°23' W 004°29'0 0.0
2018-Jun-13 01:58N 48°23' W 004°29'0 0.0
2018-Jun-13 01:28N 48°23' W 004°29'0 0.0
2018-Jun-13 00:58N 48°23' W 004°29'0 0.0
2018-Jun-13 00:28N 48°23' W 004°29'0 0.0
2018-Jun-12 23:58N 48°23' W 004°29'0 0.0
2018-Jun-12 23:28N 48°23' W 004°29'0 0.0
2018-Jun-12 22:58N 48°23' W 004°29'0 0.0
2018-Jun-12 22:28N 48°23' W 004°29'0 0.0
2018-Jun-12 21:58N 48°23' W 004°29'0 0.0
2018-Jun-12 21:28N 48°23' W 004°29'0 0.0
2018-Jun-12 20:58N 48°23' W 004°29'0 0.0
2018-Jun-12 20:28N 48°23' W 004°29'0 0.0
2018-Jun-12 19:58N 48°23' W 004°29'0 0.0
2018-Jun-12 19:28N 48°23' W 004°29'0 0.0
2018-Jun-12 18:58N 48°23' W 004°29'0 0.0
2018-Jun-12 18:28N 48°23' W 004°29'0 0.0
2018-Jun-12 17:58N 48°23' W 004°29'0 0.0
2018-Jun-12 17:28N 48°23' W 004°29'0 0.0
2018-Jun-12 16:58N 48°23' W 004°29'0 0.0
2018-Jun-12 16:28N 48°23' W 004°29'0 0.0
2018-Jun-12 15:58N 48°23' W 004°29'0 0.0
2018-Jun-12 15:28N 48°23' W 004°29'0 0.0
2018-Jun-12 14:58N 48°23' W 004°29'0 0.0
2018-Jun-12 14:28N 48°23' W 004°29'0 0.0
2018-Jun-12 13:58N 48°23' W 004°29'0 0.0
2018-Jun-12 13:28N 48°23' W 004°29'0 0.0
2018-Jun-12 12:58N 48°23' W 004°29'0 0.0
2018-Jun-12 12:28N 48°23' W 004°29'0 0.0
2018-Jun-12 11:58N 48°23' W 004°29'0 0.0
2018-Jun-12 11:28N 48°23' W 004°29'0 0.0
2018-Jun-12 10:58N 48°23' W 004°29'0 0.0
2018-Jun-12 10:28N 48°23' W 004°29'0 0.0
2018-Jun-12 09:58N 48°23' W 004°29'0 0.0
2018-Jun-12 09:28N 48°23' W 004°29'0 0.0
2018-Jun-12 08:58N 48°23' W 004°29'0 0.0
2018-Jun-12 08:28N 48°23' W 004°29'0 0.0
2018-Jun-12 07:58N 48°23' W 004°29'0 0.0
2018-Jun-12 07:28N 48°23' W 004°29'0 0.0
2018-Jun-12 06:58N 48°23' W 004°29'0 0.0
2018-Jun-12 06:28N 48°23' W 004°29'0 0.0
2018-Jun-12 05:58N 48°23' W 004°29'0 0.0
2018-Jun-12 05:28N 48°23' W 004°29'0 0.0
2018-Jun-12 04:58N 48°23' W 004°29'0 0.0
2018-Jun-12 04:28N 48°23' W 004°29'0 0.0
2018-Jun-12 03:58N 48°23' W 004°29'0 0.0
2018-Jun-12 03:28N 48°23' W 004°29'0 0.0
2018-Jun-12 02:58N 48°23' W 004°29'0 0.0
2018-Jun-12 02:28N 48°23' W 004°29'0 0.0
2018-Jun-12 01:58N 48°23' W 004°29'0 0.0
2018-Jun-12 01:28N 48°23' W 004°29'0 0.0
2018-Jun-12 00:58N 48°23' W 004°29'0 0.0
2018-Jun-12 00:28N 48°23' W 004°29'0 0.0
2018-Jun-11 23:58N 48°23' W 004°29'0 0.0
2018-Jun-11 23:28N 48°23' W 004°29'0 0.0
2018-Jun-11 22:58N 48°23' W 004°29'0 0.0
2018-Jun-11 22:28N 48°23' W 004°29'0 0.0
2018-Jun-11 21:58N 48°23' W 004°29'0 0.0
2018-Jun-11 21:28N 48°23' W 004°29'0 0.0
2018-Jun-11 20:58N 48°23' W 004°29'0 0.0
2018-Jun-11 20:28N 48°23' W 004°29'0 0.0
2018-Jun-11 19:58N 48°23' W 004°29'0 0.0
2018-Jun-11 19:28N 48°23' W 004°29'0 0.0
2018-Jun-11 18:58N 48°23' W 004°29'0 0.0
2018-Jun-11 18:28N 48°23' W 004°29'0 0.0
2018-Jun-11 17:58N 48°23' W 004°29'0 0.0
2018-Jun-11 17:28N 48°23' W 004°29'0 0.0
2018-Jun-11 16:58N 48°23' W 004°29'0 0.0
2018-Jun-11 16:28N 48°23' W 004°29'0 0.0
2018-Jun-11 15:58N 48°23' W 004°29'0 0.0
2018-Jun-11 15:28N 48°23' W 004°29'0 0.0
2018-Jun-11 14:58N 48°23' W 004°29'0 0.0
2018-Jun-11 14:28N 48°23' W 004°29'0 0.0
2018-Jun-11 13:58N 48°23' W 004°29'0 0.0
2018-Jun-11 13:28N 48°23' W 004°29'0 0.0
2018-Jun-11 13:01N 48°23' W 004°29'0 0.0
2018-Jun-11 12:28N 48°23' W 004°29'0 0.0
2018-Jun-11 12:01N 48°23' W 004°29'0 0.0
2018-Jun-11 11:31N 48°23' W 004°29'0 0.0
2018-Jun-11 11:01N 48°23' W 004°29'0 0.0
2018-Jun-11 10:31N 48°23' W 004°29'0 0.0
2018-Jun-11 10:01N 48°23' W 004°29'0 0.0
2018-Jun-11 09:31N 48°23' W 004°29'0 0.0
2018-Jun-11 09:01N 48°23' W 004°29'0 0.0
2018-Jun-11 08:31N 48°23' W 004°29'0 0.0
2018-Jun-11 08:00N 48°23' W 004°29'0 0.0
2018-Jun-11 07:31N 48°23' W 004°29'0 0.0
2018-Jun-11 07:01N 48°23' W 004°29'0 0.0
2018-Jun-11 06:30N 48°23' W 004°29'0 0.0
2018-Jun-11 06:00N 48°23' W 004°29'0 0.0
2018-Jun-11 05:30N 48°23' W 004°29'0 0.0
2018-Jun-11 05:00N 48°23' W 004°29'0 0.0
2018-Jun-11 04:30N 48°23' W 004°29'0 0.0
2018-Jun-11 04:00N 48°23' W 004°29'0 0.0
2018-Jun-11 03:30N 48°23' W 004°29'0 0.0
2018-Jun-11 03:00N 48°23' W 004°29'0 0.0
2018-Jun-11 02:30N 48°23' W 004°29'0 0.0
2018-Jun-11 02:00N 48°23' W 004°29'0 0.0
2018-Jun-11 01:30N 48°23' W 004°29'0 0.0
2018-Jun-11 01:00N 48°23' W 004°29'0 0.0
2018-Jun-11 00:30N 48°23' W 004°29'0 0.0
2018-Jun-11 00:00N 48°23' W 004°29'0 0.0
2018-Jun-10 23:30N 48°23' W 004°29'0 0.0
2018-Jun-10 23:00N 48°23' W 004°29'0 0.0
2018-Jun-10 22:30N 48°23' W 004°29'0 0.0
2018-Jun-10 22:00N 48°23' W 004°29'0 0.0
2018-Jun-10 21:30N 48°23' W 004°29'0 0.0
2018-Jun-10 21:00N 48°23' W 004°29'0 0.0
2018-Jun-10 20:30N 48°23' W 004°29'0 0.0
2018-Jun-10 20:00N 48°23' W 004°29'0 0.0
2018-Jun-10 19:30N 48°23' W 004°29'0 0.0
2018-Jun-10 19:00N 48°23' W 004°29'0 0.0
2018-Jun-10 18:30N 48°23' W 004°29'0 0.0
2018-Jun-10 18:00N 48°23' W 004°29'0 0.0
2018-Jun-10 17:30N 48°23' W 004°29'0 0.0
2018-Jun-10 17:00N 48°23' W 004°29'0 0.0
2018-Jun-10 16:30N 48°23' W 004°29'0 0.0
2018-Jun-10 16:00N 48°23' W 004°29'0 0.0
2018-Jun-10 15:30N 48°23' W 004°29'0 0.0
2018-Jun-10 15:00N 48°23' W 004°29'0 0.0
2018-Jun-10 14:00N 48°23' W 004°29'0 0.0
2018-Jun-10 13:30N 48°23' W 004°29'0 0.0
2018-Jun-10 13:00N 48°23' W 004°29'0 0.0
2018-Jun-10 12:30N 48°23' W 004°29'0 0.0
2018-Jun-10 12:00N 48°23' W 004°29'0 0.0
2018-Jun-10 11:30N 48°23' W 004°29'0 0.0
2018-Jun-10 11:00N 48°23' W 004°29'0 0.0
2018-Jun-10 10:30N 48°23' W 004°29'0 0.0
2018-Jun-10 10:00N 48°23' W 004°29'0 0.0
2018-Jun-10 09:30N 48°23' W 004°29'0 0.0
2018-Jun-10 09:00N 48°23' W 004°29'0 0.0
2018-Jun-10 08:30N 48°23' W 004°29'0 0.0
2018-Jun-10 08:00N 48°23' W 004°29'0 0.0
2018-Jun-10 07:30N 48°23' W 004°29'0 0.0
2018-Jun-10 07:00N 48°23' W 004°29'0 0.0
2018-Jun-10 06:30N 48°23' W 004°29'0 0.0
2018-Jun-10 06:00N 48°23' W 004°29'0 0.0
2018-Jun-10 05:30N 48°23' W 004°29'0 0.0
2018-Jun-10 05:00N 48°23' W 004°29'0 0.0
2018-Jun-10 04:30N 48°23' W 004°29'0 0.0
2018-Jun-10 04:00N 48°23' W 004°29'0 0.0
2018-Jun-10 03:30N 48°23' W 004°29'0 0.0
2018-Jun-10 03:00N 48°23' W 004°29'0 0.0
2018-Jun-10 02:30N 48°23' W 004°29'0 0.0
2018-Jun-10 02:00N 48°23' W 004°29'0 0.0
2018-Jun-10 01:30N 48°23' W 004°29'0 0.0
2018-Jun-10 01:00N 48°23' W 004°29'0 0.0
2018-Jun-10 00:30N 48°23' W 004°29'0 0.0
2018-Jun-10 00:00N 48°23' W 004°29'0 0.0
2018-Jun-09 23:30N 48°23' W 004°29'0 0.0
2018-Jun-09 23:00N 48°23' W 004°29'0 0.0
2018-Jun-09 22:30N 48°23' W 004°29'0 0.0
2018-Jun-09 22:00N 48°23' W 004°29'0 0.0
2018-Jun-09 21:30N 48°23' W 004°29'0 0.0
2018-Jun-09 21:00N 48°23' W 004°29'0 0.0
2018-Jun-09 20:30N 48°23' W 004°29'0 0.0
2018-Jun-09 20:00N 48°23' W 004°29'0 0.0
2018-Jun-09 19:30N 48°23' W 004°29'0 0.0
2018-Jun-09 19:00N 48°23' W 004°29'0 0.0
2018-Jun-09 18:30N 48°23' W 004°29'0 0.0
2018-Jun-09 18:00N 48°23' W 004°29'0 0.0
2018-Jun-09 17:30N 48°23' W 004°29'0 0.0
2018-Jun-09 17:00N 48°23' W 004°29'0 0.0
2018-Jun-09 16:30N 48°23' W 004°29'0 0.0
2018-Jun-09 16:00N 48°23' W 004°29'0 0.0
2018-Jun-09 15:00N 48°23' W 004°29'0 0.0
2018-Jun-09 14:30N 48°23' W 004°29'0 0.0
2018-Jun-09 14:00N 48°23' W 004°29'0 0.0
2018-Jun-09 13:30N 48°23' W 004°29'0 0.0
2018-Jun-09 13:00N 48°23' W 004°29'0 0.0
2018-Jun-09 12:30N 48°23' W 004°29'0 0.0
2018-Jun-09 12:00N 48°23' W 004°29'0 0.0
2018-Jun-09 11:30N 48°23' W 004°29'0 0.0
2018-Jun-09 11:00N 48°23' W 004°29'0 0.0
2018-Jun-09 10:30N 48°23' W 004°29'0 0.0
2018-Jun-09 10:00N 48°23' W 004°29'0 0.0
2018-Jun-09 09:30N 48°23' W 004°29'0 0.0
2018-Jun-09 09:00N 48°23' W 004°29'0 0.0
2018-Jun-09 08:30N 48°23' W 004°29'0 0.0
2018-Jun-09 08:00N 48°23' W 004°29'0 0.0
2018-Jun-09 07:30N 48°23' W 004°29'0 0.0
2018-Jun-09 07:00N 48°23' W 004°29'0 0.0
2018-Jun-09 06:30N 48°23' W 004°29'0 0.0
2018-Jun-09 06:00N 48°23' W 004°29'0 0.0
2018-Jun-09 05:30N 48°23' W 004°29'0 0.0
2018-Jun-09 05:00N 48°23' W 004°29'0 0.0
2018-Jun-09 04:30N 48°23' W 004°29'0 0.0
2018-Jun-09 04:00N 48°23' W 004°29'0 0.0
2018-Jun-09 03:30N 48°23' W 004°29'0 0.0
2018-Jun-09 03:00N 48°23' W 004°29'0 0.0
2018-Jun-09 02:30N 48°23' W 004°29'0 0.0
2018-Jun-09 02:00N 48°23' W 004°29'0 0.0
2018-Jun-09 01:30N 48°23' W 004°29'0 0.0
2018-Jun-09 01:00N 48°23' W 004°29'0 0.0
2018-Jun-09 00:30N 48°23' W 004°29'0 0.0
2018-Jun-09 00:00N 48°23' W 004°29'0 0.0
2018-Jun-08 23:30N 48°23' W 004°29'0 0.0
2018-Jun-08 23:00N 48°23' W 004°29'0 0.0
2018-Jun-08 22:30N 48°23' W 004°29'0 0.0
2018-Jun-08 22:00N 48°23' W 004°29'0 0.0
2018-Jun-08 21:30N 48°23' W 004°29'0 0.0
2018-Jun-08 21:00N 48°23' W 004°29'0 0.0
2018-Jun-08 20:30N 48°23' W 004°29'0 0.0
2018-Jun-08 20:00N 48°23' W 004°29'0 0.0
2018-Jun-08 19:30N 48°23' W 004°29'0 0.0
2018-Jun-08 19:00N 48°23' W 004°29'0 0.0
2018-Jun-08 18:30N 48°23' W 004°29'0 0.0
2018-Jun-08 18:00N 48°23' W 004°29'0 0.0
2018-Jun-08 17:30N 48°23' W 004°29'0 0.0
2018-Jun-08 17:00N 48°23' W 004°29'0 0.0
2018-Jun-08 16:30N 48°23' W 004°29'0 0.0
2018-Jun-08 16:00N 48°23' W 004°29'0 0.0
2018-Jun-08 15:30N 48°23' W 004°29'0 0.0
2018-Jun-08 15:00N 48°23' W 004°29'0 0.0
2018-Jun-08 14:30N 48°23' W 004°29'0 0.0
2018-Jun-08 14:00N 48°23' W 004°29'0 0.0
2018-Jun-08 13:30N 48°23' W 004°29'0 0.0
2018-Jun-08 13:00N 48°23' W 004°29'0 0.0
2018-Jun-08 12:30N 48°23' W 004°29'0 0.0
2018-Jun-08 12:01N 48°23' W 004°29'0 0.0
2018-Jun-08 11:31N 48°23' W 004°29'0 0.0
2018-Jun-08 11:01N 48°23' W 004°29'0 0.0
2018-Jun-08 10:31N 48°23' W 004°29'0 0.0
2018-Jun-08 10:01N 48°23' W 004°29'0 0.0
2018-Jun-08 09:31N 48°23' W 004°29'0 0.0
2018-Jun-08 09:01N 48°23' W 004°29'0 0.0
2018-Jun-08 08:31N 48°23' W 004°29'0 0.0
2018-Jun-08 08:01N 48°23' W 004°29'0 0.0
2018-Jun-08 07:31N 48°23' W 004°29'0 0.0
2018-Jun-08 07:00N 48°23' W 004°29'0 0.0
2018-Jun-08 06:31N 48°23' W 004°29'0 0.0
2018-Jun-08 06:01N 48°23' W 004°29'0 0.0
2018-Jun-08 05:31N 48°23' W 004°29'0 0.0
2018-Jun-08 05:00N 48°23' W 004°29'0 0.0
2018-Jun-08 04:31N 48°23' W 004°29'0 0.0
2018-Jun-08 04:01N 48°23' W 004°29'0 0.0
2018-Jun-08 03:31N 48°23' W 004°29'0 0.0
2018-Jun-08 03:01N 48°23' W 004°29'0 0.0
2018-Jun-08 02:30N 48°23' W 004°29'0 0.0
2018-Jun-08 02:01N 48°23' W 004°29'0 0.0
2018-Jun-08 01:31N 48°23' W 004°29'0 0.0
2018-Jun-08 01:00N 48°23' W 004°29'0 0.0
2018-Jun-08 00:30N 48°23' W 004°29'0 0.0
2018-Jun-08 00:01N 48°23' W 004°29'0 0.0
2018-Jun-07 23:31N 48°23' W 004°29'0 0.0
2018-Jun-07 23:00N 48°23' W 004°29'0 0.0
2018-Jun-07 22:31N 48°23' W 004°29'0 0.0
2018-Jun-07 22:01N 48°23' W 004°29'0 0.0
2018-Jun-07 21:30N 48°23' W 004°29'0 0.0
2018-Jun-07 21:01N 48°23' W 004°29'0 0.0
2018-Jun-07 20:31N 48°23' W 004°29'0 0.0
2018-Jun-07 20:01N 48°23' W 004°29'0 0.0
2018-Jun-07 19:30N 48°23' W 004°29'0 0.0
2018-Jun-07 19:01N 48°23' W 004°29'0 0.0
2018-Jun-07 18:31N 48°23' W 004°29'  

Dump ship's entire track history